Oklahoma City, Oklahoma
Current Conditions -  °F | °C
As of 3:52 AM on Saturday 20 Dec 2014 (Local Time) from KOKC Reporting Station
Overcast Overcast  
Wind Chill: 39°   Ceiling: 2300
Heat Index: 39°   Visibility: 9mi
Dew Point: 34°   Wind: 3mph
Humidity: 82%   Direction: 110°ESE
Pressure: 30.19"   Gusts: NA
Location:  35.47°N, 97.52°W
Report Text: KOKC 200952Z 11003KT 9SM OVC023 04/01 A3019 RMK AO2 SLP229 T00390011 $
Loading
Personal Weather Stations






























Interactive Weather Map New forecast layout! Learn more

10-Day Weather Forecast

Advertisements
Track Severe Weather on mobile